createdAt,value
2023-03-14T00:00:49.276Z,5.91
2023-03-14T00:03:58.547Z,6.02
2023-03-14T00:07:07.342Z,6.84
2023-03-14T00:10:18.700Z,5.81
2023-03-14T00:13:24.551Z,6.98
2023-03-14T00:16:31.454Z,7.67
2023-03-14T00:19:39.896Z,6.01
2023-03-14T00:22:46.555Z,5.49
2023-03-14T00:25:52.414Z,5.47
2023-03-14T00:29:00.400Z,5.38
2023-03-14T00:32:06.588Z,6.24
2023-03-14T00:35:16.273Z,4.56
2023-03-14T00:38:25.585Z,4.41
2023-03-14T00:41:32.170Z,4.62
2023-03-14T00:44:40.268Z,4.87
2023-03-14T00:47:48.028Z,4.70
2023-03-14T00:50:56.577Z,5.48
2023-03-14T00:54:04.606Z,5.41
2023-03-14T00:57:10.676Z,5.38
2023-03-14T01:00:18.819Z,5.72
2023-03-14T01:03:25.233Z,5.36
2023-03-14T01:06:34.452Z,8.06
2023-03-14T01:09:40.409Z,8.17
2023-03-14T01:12:47.181Z,7.37
2023-03-14T01:15:53.150Z,6.33
2023-03-14T01:18:59.917Z,5.89
2023-03-14T01:22:09.735Z,4.97
2023-03-14T01:25:20.512Z,4.65
2023-03-14T01:28:26.844Z,4.73
2023-03-14T01:31:33.765Z,4.57
2023-03-14T01:34:39.520Z,4.89
2023-03-14T01:37:48.868Z,5.20
2023-03-14T01:41:00.101Z,4.93
2023-03-14T01:44:06.956Z,5.06
2023-03-14T01:47:12.787Z,4.98
2023-03-14T01:50:19.643Z,4.99
2023-03-14T01:53:29.587Z,5.04
2023-03-14T01:56:37.787Z,4.65
2023-03-14T01:59:52.219Z,4.66
2023-03-14T02:03:08.072Z,5.49
2023-03-14T02:06:19.930Z,5.32
2023-03-14T02:09:31.107Z,5.45
2023-03-14T02:12:40.353Z,7.41
2023-03-14T02:16:06.857Z,8.84
2023-03-14T02:19:54.874Z,7.31
2023-03-14T02:23:12.125Z,6.45
2023-03-14T02:26:32.440Z,5.93
2023-03-14T02:29:53.467Z,6.79
2023-03-14T02:33:07.150Z,8.74
2023-03-14T02:36:18.987Z,9.98
2023-03-14T02:39:39.100Z,11.14
2023-03-14T02:42:47.390Z,10.75
2023-03-14T02:45:57.895Z,11.33
2023-03-14T02:49:12.296Z,10.06
2023-03-14T02:52:18.101Z,7.85
2023-03-14T02:55:26.787Z,6.19
2023-03-14T02:58:36.221Z,5.83
2023-03-14T03:01:53.601Z,5.65
2023-03-14T03:04:59.368Z,6.10
2023-03-14T03:08:06.659Z,7.08
2023-03-14T03:11:13.193Z,7.75
2023-03-14T03:14:20.042Z,7.39
2023-03-14T03:17:28.712Z,7.20
2023-03-14T03:20:35.247Z,6.15
2023-03-14T03:23:41.215Z,5.87
2023-03-14T03:26:47.813Z,5.41
2023-03-14T03:29:53.604Z,4.93
2023-03-14T03:33:03.069Z,4.80
2023-03-14T03:36:11.176Z,4.98
2023-03-14T03:39:20.437Z,5.36
2023-03-14T03:42:29.979Z,4.75
2023-03-14T03:45:36.867Z,4.81
2023-03-14T03:48:47.426Z,4.87
2023-03-14T03:51:54.096Z,4.60
2023-03-14T03:55:00.028Z,4.74
2023-03-14T03:58:09.702Z,5.40
2023-03-14T04:01:15.869Z,5.97
2023-03-14T04:04:28.186Z,6.12
2023-03-14T04:07:36.428Z,6.24
2023-03-14T04:10:47.197Z,5.74
2023-03-14T04:14:00.768Z,6.32
2023-03-14T04:17:09.153Z,6.07
2023-03-14T04:20:22.151Z,5.82
2023-03-14T04:23:29.767Z,5.79
2023-03-14T04:26:35.647Z,5.59
2023-03-14T04:29:42.261Z,6.02
2023-03-14T04:32:48.747Z,5.63
2023-03-14T04:36:00.344Z,5.05
2023-03-14T04:39:07.215Z,5.18
2023-03-14T04:42:17.486Z,8.86
2023-03-14T04:45:23.684Z,7.56
2023-03-14T04:48:31.700Z,10.46
2023-03-14T04:51:41.924Z,13.25
2023-03-14T04:54:49.384Z,14.37
2023-03-14T04:57:56.921Z,8.60
2023-03-14T05:01:08.249Z,8.39
2023-03-14T05:04:22.321Z,10.19
2023-03-14T05:07:49.263Z,8.34
2023-03-14T05:11:15.518Z,8.23
2023-03-14T05:14:40.787Z,7.37
2023-03-14T05:18:05.001Z,7.72
2023-03-14T05:21:35.513Z,7.43
2023-03-14T05:25:02.257Z,7.32
2023-03-14T05:28:32.276Z,7.84
2023-03-14T05:31:48.737Z,6.34
2023-03-14T05:35:24.442Z,6.57
2023-03-14T05:38:50.589Z,6.94
2023-03-14T05:42:21.019Z,7.26
2023-03-14T05:45:51.356Z,6.96
2023-03-14T05:49:19.500Z,7.84
2023-03-14T05:52:45.280Z,8.76
2023-03-14T05:56:27.415Z,9.53
2023-03-14T05:59:47.402Z,12.53
2023-03-14T06:03:26.252Z,9.30
2023-03-14T06:06:32.206Z,9.77
2023-03-14T06:09:40.739Z,6.99
2023-03-14T06:12:49.304Z,8.47
2023-03-14T06:15:58.685Z,10.53
2023-03-14T06:19:04.674Z,11.35
2023-03-14T06:22:11.652Z,10.75
2023-03-14T06:25:18.332Z,9.81
2023-03-14T06:28:27.346Z,9.39
2023-03-14T06:31:40.291Z,7.84
2023-03-14T06:34:48.297Z,8.10
2023-03-14T06:37:55.821Z,9.81
2023-03-14T06:41:08.786Z,9.75
2023-03-14T06:44:20.574Z,8.33
2023-03-14T06:47:30.179Z,9.53
2023-03-14T06:50:37.413Z,7.87
2023-03-14T06:53:45.803Z,8.48
2023-03-14T06:56:56.371Z,7.49
2023-03-14T07:00:02.941Z,6.92
2023-03-14T07:03:13.510Z,7.33
2023-03-14T07:06:22.244Z,7.23
2023-03-14T07:09:28.371Z,6.87
2023-03-14T07:12:39.099Z,6.74
2023-03-14T07:15:44.912Z,7.11
2023-03-14T07:18:54.422Z,6.21
2023-03-14T07:22:00.440Z,6.10
2023-03-14T07:25:10.520Z,6.75
2023-03-14T07:28:16.744Z,7.28
2023-03-14T07:31:26.445Z,7.11
2023-03-14T07:34:37.302Z,7.14
2023-03-14T07:37:46.784Z,6.50
2023-03-14T07:40:54.269Z,6.32
2023-03-14T07:44:00.981Z,6.73
2023-03-14T07:47:06.846Z,6.64
2023-03-14T07:50:16.615Z,6.99
2023-03-14T07:53:22.812Z,7.12
2023-03-14T07:56:29.510Z,6.71
2023-03-14T07:59:35.633Z,6.60
2023-03-14T08:02:42.224Z,6.05
2023-03-14T08:05:52.649Z,6.36
2023-03-14T08:08:59.268Z,6.15
2023-03-14T08:12:05.123Z,6.08
2023-03-14T08:15:14.385Z,6.00
2023-03-14T08:18:20.310Z,6.15
2023-03-14T08:21:29.583Z,6.09
2023-03-14T08:24:35.918Z,6.20
2023-03-14T08:27:42.903Z,6.54
2023-03-14T08:30:49.477Z,8.13
2023-03-14T08:33:56.784Z,9.04
2023-03-14T08:37:10.862Z,7.08
2023-03-14T08:40:23.752Z,6.87
2023-03-14T08:43:30.236Z,7.09
2023-03-14T08:46:37.254Z,9.67
2023-03-14T08:49:47.172Z,7.84
2023-03-14T08:52:58.877Z,6.27
2023-03-14T08:56:04.890Z,6.91
2023-03-14T08:59:12.289Z,6.74
2023-03-14T09:02:21.231Z,6.16
2023-03-14T09:05:27.946Z,5.92
2023-03-14T09:08:39.219Z,6.50
2023-03-14T09:11:46.639Z,9.51
2023-03-14T09:14:52.703Z,7.81
2023-03-14T09:18:02.329Z,5.99
2023-03-14T09:21:11.010Z,6.51
2023-03-14T09:24:20.933Z,6.62
2023-03-14T09:27:26.677Z,6.22
2023-03-14T09:30:33.607Z,6.53
2023-03-14T09:33:40.665Z,7.31
2023-03-14T09:36:47.914Z,7.23
2023-03-14T09:39:56.328Z,8.32
2023-03-14T09:43:03.065Z,7.93
2023-03-14T09:46:13.610Z,7.49
2023-03-14T09:49:28.022Z,7.41
2023-03-14T09:52:42.763Z,8.77
2023-03-14T09:55:54.933Z,7.49
2023-03-14T09:59:06.570Z,6.88
2023-03-14T10:02:22.525Z,7.40
2023-03-14T10:05:30.848Z,8.19
2023-03-14T10:08:37.519Z,8.26
2023-03-14T10:11:47.090Z,8.61
2023-03-14T10:14:57.239Z,8.36
2023-03-14T10:18:11.158Z,7.17
2023-03-14T10:21:30.834Z,8.11
2023-03-14T10:24:39.146Z,9.62
2023-03-14T10:27:48.521Z,10.47
2023-03-14T10:30:55.785Z,10.63
2023-03-14T10:34:05.602Z,9.46
2023-03-14T10:37:26.840Z,8.68
2023-03-14T10:40:41.017Z,9.06
2023-03-14T10:43:53.695Z,8.55
2023-03-14T10:47:07.154Z,8.30
2023-03-14T10:50:32.879Z,8.85
2023-03-14T10:53:47.229Z,8.80
2023-03-14T10:57:02.349Z,7.83
2023-03-14T11:00:24.749Z,6.71
2023-03-14T11:03:37.664Z,6.98
2023-03-14T11:06:55.606Z,7.27
2023-03-14T11:10:15.821Z,8.46
2023-03-14T11:13:34.569Z,8.38
2023-03-14T11:17:00.553Z,8.03
2023-03-14T11:20:36.835Z,7.94
2023-03-14T11:24:02.276Z,8.16
2023-03-14T11:27:22.208Z,9.51
2023-03-14T11:30:43.327Z,9.32
2023-03-14T11:34:06.330Z,7.57
2023-03-14T11:37:29.202Z,9.09
2023-03-14T11:40:39.911Z,9.12
2023-03-14T11:43:51.924Z,11.40
2023-03-14T11:47:12.936Z,13.27
2023-03-14T11:50:30.997Z,10.76
2023-03-14T11:53:54.455Z,8.95
2023-03-14T11:57:07.357Z,8.72
2023-03-14T12:00:23.084Z,8.79
2023-03-14T12:03:41.775Z,8.89
2023-03-14T12:06:54.552Z,9.02
2023-03-14T12:10:01.391Z,8.29
2023-03-14T12:13:08.483Z,8.34
2023-03-14T12:16:49.709Z,10.79
2023-03-14T12:20:19.383Z,8.78
2023-03-14T12:23:31.229Z,8.97
2023-03-14T12:26:57.166Z,8.71
2023-03-14T12:30:05.162Z,9.14
2023-03-14T12:33:36.446Z,8.99
2023-03-14T12:37:05.595Z,8.36
2023-03-14T12:40:31.551Z,8.29
2023-03-14T12:43:40.371Z,8.60
2023-03-14T12:46:49.718Z,8.65
2023-03-14T12:49:59.241Z,8.84
2023-03-14T12:54:08.701Z,9.27
2023-03-14T12:57:38.607Z,8.01
2023-03-14T13:00:46.775Z,8.74
2023-03-14T13:03:59.562Z,8.12
2023-03-14T13:07:08.201Z,7.37
2023-03-14T13:10:26.381Z,7.04
2023-03-14T13:13:47.650Z,7.07
2023-03-14T13:16:54.069Z,7.41
2023-03-14T13:20:09.000Z,7.91
2023-03-14T13:23:26.486Z,7.76
2023-03-14T13:26:40.248Z,8.40
2023-03-14T13:29:49.172Z,8.94
2023-03-14T13:32:59.176Z,8.57
2023-03-14T13:36:08.718Z,8.88
2023-03-14T13:39:23.157Z,8.39
2023-03-14T13:42:33.457Z,9.67
2023-03-14T13:45:56.721Z,9.18
2023-03-14T13:49:07.225Z,11.15
2023-03-14T13:52:31.970Z,10.59
2023-03-14T13:55:38.219Z,12.28
2023-03-14T13:58:46.235Z,12.08
2023-03-14T14:01:57.570Z,11.70
2023-03-14T14:05:05.669Z,11.96
2023-03-14T14:08:16.401Z,11.98
2023-03-14T14:11:55.955Z,10.75
2023-03-14T14:15:17.535Z,8.92
2023-03-14T14:18:32.663Z,8.67
2023-03-14T14:21:38.817Z,8.32
2023-03-14T14:24:46.117Z,7.43
2023-03-14T14:27:54.214Z,7.17
2023-03-14T14:31:08.516Z,7.59
2023-03-14T14:34:28.519Z,6.94
2023-03-14T14:37:44.747Z,5.31
2023-03-14T14:40:55.267Z,5.76
2023-03-14T14:44:04.216Z,6.13
2023-03-14T14:47:10.495Z,7.27
2023-03-14T14:50:36.085Z,8.34
2023-03-14T14:53:46.004Z,8.94
2023-03-14T14:56:56.356Z,15.13
2023-03-14T15:00:13.279Z,11.77
2023-03-14T15:03:20.085Z,32.93
2023-03-14T15:06:35.157Z,45.97
2023-03-14T15:09:41.751Z,30.12
2023-03-14T15:12:48.444Z,27.51
2023-03-14T15:15:57.727Z,87.63
2023-03-14T15:19:23.999Z,12.96
2023-03-14T15:22:34.078Z,14.17
2023-03-14T15:25:54.953Z,14.87
2023-03-14T15:29:02.253Z,10.80
2023-03-14T15:32:09.493Z,10.04
2023-03-14T15:35:17.812Z,12.88
2023-03-14T15:38:26.556Z,11.53
2023-03-14T15:41:33.317Z,34.49
2023-03-14T15:44:40.280Z,30.09
2023-03-14T15:47:46.986Z,28.14
2023-03-14T15:50:53.980Z,19.29
2023-03-14T15:54:03.664Z,11.95
2023-03-14T15:57:09.600Z,11.54
2023-03-14T16:00:22.752Z,10.41
2023-03-14T16:03:28.697Z,10.27
2023-03-14T16:06:36.608Z,9.50
2023-03-14T16:09:45.276Z,10.78
2023-03-14T16:12:52.295Z,8.30
2023-03-14T16:16:02.736Z,6.78
2023-03-14T16:19:11.289Z,9.36
2023-03-14T16:22:17.311Z,107.90
2023-03-14T16:25:26.630Z,167.68
2023-03-14T16:28:32.480Z,111.98
2023-03-14T16:31:43.292Z,44.08
2023-03-14T16:34:49.396Z,18.21
2023-03-14T16:37:56.402Z,86.78
2023-03-14T16:41:08.663Z,29.86
2023-03-14T16:44:15.332Z,8.12
2023-03-14T16:47:26.448Z,10.08
2023-03-14T16:50:33.756Z,13.27
2023-03-14T16:53:40.036Z,11.82
2023-03-14T16:56:49.770Z,9.99
2023-03-14T16:59:55.781Z,8.72
2023-03-14T17:03:05.224Z,24.06
2023-03-14T17:06:14.887Z,11.90
2023-03-14T17:09:22.114Z,13.26
2023-03-14T17:12:30.673Z,19.37
2023-03-14T17:15:37.503Z,15.18
2023-03-14T17:18:43.728Z,14.98
2023-03-14T17:21:51.781Z,16.25
2023-03-14T17:25:04.521Z,14.43
2023-03-14T17:28:14.386Z,15.49
2023-03-14T17:31:28.006Z,13.15
2023-03-14T17:34:37.745Z,14.67
2023-03-14T17:37:43.581Z,15.77
2023-03-14T17:40:51.650Z,14.08
2023-03-14T17:44:01.584Z,14.25
2023-03-14T17:47:11.470Z,20.05
2023-03-14T17:50:18.007Z,28.82
2023-03-14T17:53:24.776Z,69.34
2023-03-14T17:56:30.781Z,128.63
2023-03-14T17:59:40.171Z,194.19
2023-03-14T18:03:10.064Z,126.46
2023-03-14T18:06:26.065Z,91.88
2023-03-14T18:09:33.770Z,226.83
2023-03-14T18:12:44.265Z,141.74
2023-03-14T18:15:58.813Z,43.78
2023-03-14T18:19:12.950Z,25.37
2023-03-14T18:22:21.428Z,40.68
2023-03-14T18:25:36.835Z,33.52
2023-03-14T18:28:47.293Z,26.89
2023-03-14T18:31:59.777Z,21.98
2023-03-14T18:35:08.960Z,35.16
2023-03-14T18:38:18.311Z,28.31
2023-03-14T18:41:24.374Z,19.32
2023-03-14T18:44:39.220Z,19.93
2023-03-14T18:47:57.403Z,26.04
2023-03-14T18:51:05.446Z,28.77
2023-03-14T18:54:14.811Z,27.13
2023-03-14T18:57:22.217Z,22.27
2023-03-14T19:00:29.234Z,16.29
2023-03-14T19:03:40.225Z,17.44
2023-03-14T19:06:46.063Z,16.50
2023-03-14T19:09:52.822Z,15.66
2023-03-14T19:12:58.663Z,13.42
2023-03-14T19:16:10.621Z,13.83
2023-03-14T19:19:19.378Z,14.06
2023-03-14T19:22:26.316Z,12.66
2023-03-14T19:25:32.907Z,12.70
2023-03-14T19:28:40.281Z,10.84
2023-03-14T19:31:46.587Z,8.50
2023-03-14T19:35:00.716Z,7.57
2023-03-14T19:38:06.809Z,7.90
2023-03-14T19:41:13.613Z,7.73
2023-03-14T19:44:21.982Z,9.26
2023-03-14T19:47:28.862Z,8.21
2023-03-14T19:50:39.291Z,8.33
2023-03-14T19:53:47.028Z,7.68
2023-03-14T19:56:55.246Z,8.15
2023-03-14T20:09:34.665Z,6.88
2023-03-14T20:12:44.513Z,6.55
2023-03-14T20:15:59.290Z,6.50
2023-03-14T20:19:10.950Z,6.44
2023-03-14T20:27:16.598Z,5.84
2023-03-14T20:30:41.710Z,5.45
2023-03-14T20:33:57.523Z,5.12
2023-03-14T20:37:24.836Z,5.25
2023-03-14T20:40:38.335Z,4.86
2023-03-14T20:43:49.735Z,4.64
2023-03-14T20:47:04.857Z,4.66
2023-03-14T20:50:17.716Z,4.52
2023-03-14T20:53:30.003Z,4.44
2023-03-14T20:56:38.885Z,5.09
2023-03-14T20:59:48.908Z,4.98
2023-03-14T21:02:58.479Z,5.18
2023-03-14T21:06:08.371Z,5.86
2023-03-14T21:09:14.926Z,6.58
2023-03-14T21:12:23.356Z,7.19
2023-03-14T21:15:31.990Z,6.77
2023-03-14T21:18:41.670Z,8.03
2023-03-14T21:21:47.549Z,7.24
2023-03-14T21:24:56.117Z,8.18
2023-03-14T21:28:03.020Z,7.95
2023-03-14T21:31:14.239Z,8.11
2023-03-14T21:34:21.173Z,8.00
2023-03-14T21:37:28.541Z,8.10
2023-03-14T21:40:34.557Z,7.03
2023-03-14T21:43:41.608Z,7.27
2023-03-14T21:46:51.019Z,8.68
2023-03-14T21:49:59.140Z,8.30
2023-03-14T21:53:05.753Z,12.64
2023-03-14T21:56:13.718Z,9.29
2023-03-14T21:59:24.363Z,9.57
2023-03-14T22:02:34.753Z,9.95
2023-03-14T22:05:41.971Z,10.30
2023-03-14T22:08:49.136Z,9.79
2023-03-14T22:11:55.110Z,8.97
2023-03-14T22:15:01.877Z,8.94
2023-03-14T22:18:13.604Z,9.14
2023-03-14T22:21:20.452Z,8.62
2023-03-14T22:24:26.340Z,9.47
2023-03-14T22:27:33.029Z,9.90
2023-03-14T22:30:38.856Z,11.05
2023-03-14T22:33:48.381Z,9.40
2023-03-14T22:36:54.104Z,8.25
2023-03-14T22:40:00.715Z,8.89
2023-03-14T22:43:06.650Z,9.74
2023-03-14T22:46:13.554Z,8.74
2023-03-14T22:49:22.331Z,5.03
2023-03-14T22:52:33.518Z,5.10
2023-03-14T22:55:39.361Z,5.17
2023-03-14T22:58:46.100Z,6.22
2023-03-14T23:01:51.932Z,6.93
2023-03-14T23:05:01.168Z,5.59
2023-03-14T23:08:07.057Z,5.36
2023-03-14T23:11:17.264Z,4.02
2023-03-14T23:14:23.199Z,3.37
2023-03-14T23:17:29.999Z,3.53
2023-03-14T23:20:38.362Z,3.52
2023-03-14T23:23:47.306Z,3.67
2023-03-14T23:26:54.367Z,3.99
2023-03-14T23:30:01.054Z,4.18
2023-03-14T23:33:07.077Z,4.95
2023-03-14T23:36:22.371Z,5.51
2023-03-14T23:39:28.080Z,5.95
2023-03-14T23:42:34.938Z,6.27
2023-03-14T23:45:40.868Z,7.04
2023-03-14T23:48:48.871Z,7.62
2023-03-14T23:51:57.205Z,8.70
2023-03-14T23:55:03.647Z,8.87
2023-03-14T23:58:09.639Z,8.68
